Time;durP1;ratioP1;P1;durP2;ratioP2;P2;SDS_P1;SDS_P2;PMS_P1;PMS_P2;Temp;Humidity;BMP_temperature;BMP_pressure;BME280_temperature;BME280_humidity;BME280_pressure;Samples;Min_cycle;Max_cycle;Signal;HPM_P1;HPM_P2
2023/03/27 00:01:19;;;;;;;6.50;1.10;;;7.20;79.20;;;;;;5036792;28;20045;-60
2023/03/27 00:03:52;;;;;;;4.82;1.25;;;7.20;78.70;;;;;;5034718;28;20047;-62
2023/03/27 00:06:26;;;;;;;4.40;1.40;;;7.10;79.30;;;;;;5032590;28;20048;-68
2023/03/27 00:09:02;;;;;;;4.85;1.30;;;7.20;79.10;;;;;;5036175;28;20080;-70
2023/03/27 00:11:41;;;;;;;5.63;1.67;;;7.20;79.10;;;;;;4994438;28;20065;-66
2023/03/27 00:14:15;;;;;;;3.88;1.30;;;7.20;79.20;;;;;;4991450;28;20129;-68
2023/03/27 00:16:49;;;;;;;4.75;1.27;;;7.20;79.30;;;;;;4995780;28;20053;-60
2023/03/27 00:19:23;;;;;;;7.53;1.63;;;7.30;79.00;;;;;;4996307;28;20068;-61
2023/03/27 00:21:57;;;;;;;6.10;1.50;;;7.20;78.70;;;;;;5005159;28;20037;-61
2023/03/27 00:24:33;;;;;;;8.63;1.30;;;7.20;78.80;;;;;;5014506;28;20049;-61
2023/03/27 00:27:07;;;;;;;6.82;1.63;;;7.10;78.60;;;;;;5012580;28;20540;-62
2023/03/27 00:29:41;;;;;;;7.40;1.58;;;7.00;78.70;;;;;;4996700;28;20134;-62
2023/03/27 00:32:14;;;;;;;5.07;1.20;;;7.00;78.50;;;;;;4994635;28;20049;-62
2023/03/27 00:34:47;;;;;;;8.25;1.40;;;7.00;77.90;;;;;;4995076;28;20078;-64
2023/03/27 00:37:15;;;;;;;8.77;1.70;;;7.00;78.00;;;;;;4991577;28;20077;-62
2023/03/27 00:39:49;;;;;;;5.10;1.92;;;6.90;77.90;;;;;;4988472;28;20046;-61
2023/03/27 00:42:24;;;;;;;6.57;1.27;;;7.00;78.20;;;;;;5016165;28;20049;-65
2023/03/27 00:44:52;;;;;;;9.20;1.55;;;6.90;77.90;;;;;;5014281;28;20049;-66
2023/03/27 00:47:32;;;;;;;5.50;1.20;;;6.90;77.60;;;;;;4994073;28;20050;-68
2023/03/27 00:50:09;;;;;;;9.25;1.40;;;6.70;77.00;;;;;;4993542;28;20058;-66
2023/03/27 00:52:47;;;;;;;5.95;1.55;;;6.40;76.50;;;;;;4990724;28;20046;-70
2023/03/27 00:55:23;;;;;;;6.95;1.50;;;6.40;76.80;;;;;;4993892;28;20081;-70
2023/03/27 00:58:01;;;;;;;9.05;1.73;;;6.30;76.60;;;;;;4985734;28;20571;-69
2023/03/27 01:00:35;;;;;;;9.52;1.80;;;6.40;76.60;;;;;;5004882;28;20524;-69
2023/03/27 01:03:09;;;;;;;9.77;1.40;;;6.30;76.70;;;;;;4995092;28;20045;-69
2023/03/27 01:05:43;;;;;;;8.65;1.35;;;6.30;76.70;;;;;;4967668;28;20045;-69
2023/03/27 01:08:17;;;;;;;5.38;1.00;;;6.30;76.70;;;;;;4971246;28;20049;-68
2023/03/27 01:11:10;;;;;;;5.30;1.38;;;6.20;76.80;;;;;;5008594;28;20135;-68
2023/03/27 01:14:04;;;;;;;7.53;1.33;;;6.40;76.60;;;;;;5014811;28;20111;-70
2023/03/27 01:16:45;;;;;;;7.57;1.70;;;6.40;77.00;;;;;;5016383;28;20416;-61
2023/03/27 01:19:46;;;;;;;5.00;1.02;;;6.40;76.70;;;;;;5009960;28;20049;-60
2023/03/27 01:26:29;;;;;;;6.05;1.45;;;6.30;75.80;;;;;;4137545;22;20505;-62
2023/03/27 01:29:17;;;;;;;4.78;1.23;;;6.20;75.90;;;;;;4977269;28;20114;-63
2023/03/27 01:32:09;;;;;;;5.10;1.55;;;6.20;75.50;;;;;;5006516;28;20041;-62
2023/03/27 01:35:10;;;;;;;6.68;1.63;;;6.10;75.40;;;;;;5012583;28;20046;-63
2023/03/27 01:38:30;;;;;;;8.65;1.60;;;6.10;75.20;;;;;;4991216;28;20119;-62
2023/03/27 01:41:11;;;;;;;5.47;1.15;;;6.00;75.30;;;;;;4992401;28;20065;-69
2023/03/27 01:43:57;;;;;;;4.55;1.25;;;6.00;75.70;;;;;;5069289;23;20053;-66
2023/03/27 01:46:35;;;;;;;8.25;1.48;;;5.90;75.20;;;;;;4986965;28;20046;-66
2023/03/27 01:49:12;;;;;;;7.07;1.48;;;6.00;75.70;;;;;;5011604;28;20491;-61
2023/03/27 01:51:50;;;;;;;4.45;1.27;;;5.90;75.40;;;;;;5011799;28;20077;-62
2023/03/27 01:54:26;;;;;;;6.00;1.20;;;5.90;75.40;;;;;;5006999;28;20050;-61
2023/03/27 01:57:08;;;;;;;5.28;1.00;;;5.90;74.90;;;;;;5013655;28;20045;-63
2023/03/27 01:59:46;;;;;;;7.22;1.50;;;5.90;75.30;;;;;;5010101;28;20071;-62
2023/03/27 02:02:25;;;;;;;9.85;1.80;;;5.80;74.60;;;;;;4987777;28;20232;-62
2023/03/27 02:05:19;;;;;;;5.82;1.33;;;5.70;75.30;;;;;;4993579;28;20077;-63
2023/03/27 02:08:07;;;;;;;4.35;0.95;;;5.60;75.30;;;;;;4981604;28;20053;-63
2023/03/27 02:10:49;;;;;;;8.07;1.30;;;5.70;75.50;;;;;;4990110;28;20069;-60
2023/03/27 02:13:29;;;;;;;6.78;1.20;;;5.70;75.30;;;;;;4991206;28;20052;-62
2023/03/27 02:16:05;;;;;;;5.55;1.13;;;5.50;75.20;;;;;;4988889;28;20140;-64
2023/03/27 02:18:44;;;;;;;8.57;1.13;;;5.70;75.50;;;;;;4996730;28;20065;-62
2023/03/27 02:21:18;;;;;;;6.20;1.27;;;5.70;74.70;;;;;;4989249;28;20041;-62
2023/03/27 02:23:46;;;;;;;7.00;1.15;;;5.60;74.80;;;;;;4988324;28;20046;-64
2023/03/27 02:26:19;;;;;;;10.38;1.63;;;5.70;75.00;;;;;;4989052;28;20057;-63
2023/03/27 02:29:15;;;;;;;6.32;1.25;;;5.60;74.40;;;;;;5012574;28;20116;-64
2023/03/27 02:32:05;;;;;;;7.65;1.20;;;5.60;74.10;;;;;;4983299;28;20053;-66
2023/03/27 02:35:02;;;;;;;7.88;1.20;;;5.40;74.20;;;;;;4995529;28;20116;-60
2023/03/27 02:37:49;;;;;;;6.93;2.05;;;5.40;74.40;;;;;;4994501;28;20042;-62
2023/03/27 02:40:45;;;;;;;6.82;1.17;;;5.50;74.30;;;;;;4993844;28;20041;-62
2023/03/27 02:43:42;;;;;;;4.32;1.30;;;5.40;73.70;;;;;;5004481;28;20368;-63
2023/03/27 02:46:34;;;;;;;6.00;0.98;;;5.40;74.10;;;;;;4998385;28;20129;-62
2023/03/27 02:49:13;;;;;;;6.10;1.10;;;5.40;74.00;;;;;;4997484;28;20049;-63
2023/03/27 02:51:52;;;;;;;7.97;1.20;;;5.40;74.10;;;;;;4985236;28;20516;-63
2023/03/27 02:54:29;;;;;;;6.88;1.30;;;5.30;74.00;;;;;;5015485;28;20071;-62
2023/03/27 02:57:08;;;;;;;5.05;1.17;;;5.30;74.20;;;;;;5000244;28;20054;-62
2023/03/27 03:00:22;;;;;;;4.72;1.23;;;5.40;74.10;;;;;;5022455;28;20445;-63
2023/03/27 03:03:17;;;;;;;4.47;0.88;;;5.50;74.10;;;;;;4999109;28;20492;-62
2023/03/27 03:05:57;;;;;;;6.25;1.30;;;5.40;74.00;;;;;;4990993;28;20077;-62
2023/03/27 03:08:30;;;;;;;8.15;1.65;;;5.40;74.40;;;;;;5017798;28;20130;-62
2023/03/27 03:11:03;;;;;;;4.75;1.08;;;5.40;74.00;;;;;;4996971;28;20053;-61
2023/03/27 03:13:37;;;;;;;8.05;1.27;;;5.40;74.50;;;;;;5010851;28;20176;-60
2023/03/27 03:16:06;;;;;;;7.00;1.45;;;5.40;74.40;;;;;;4999439;28;20049;-62
2023/03/27 03:18:41;;;;;;;5.75;0.90;;;5.40;74.50;;;;;;5014671;28;20072;-62
2023/03/27 03:21:14;;;;;;;5.25;1.10;;;5.40;74.50;;;;;;5012571;28;20477;-61
2023/03/27 03:23:47;;;;;;;5.15;1.10;;;5.40;74.90;;;;;;4998129;28;20411;-62
2023/03/27 03:26:21;;;;;;;7.90;1.20;;;5.40;74.90;;;;;;5012953;28;20757;-60
2023/03/27 03:28:56;;;;;;;6.43;1.20;;;5.40;75.00;;;;;;4997597;28;20076;-62
2023/03/27 03:31:43;;;;;;;8.27;1.00;;;5.40;75.20;;;;;;4997928;28;20050;-60
2023/03/27 03:34:21;;;;;;;6.78;1.05;;;5.40;75.40;;;;;;4993680;28;20045;-62
2023/03/27 03:36:54;;;;;;;6.05;0.88;;;5.30;76.10;;;;;;5016365;28;20083;-62
2023/03/27 03:39:30;;;;;;;4.60;1.00;;;5.40;76.00;;;;;;5013586;28;20183;-63
2023/03/27 03:42:04;;;;;;;5.82;0.90;;;5.40;76.10;;;;;;4999838;28;20041;-62
2023/03/27 03:44:44;;;;;;;6.93;1.40;;;5.40;76.40;;;;;;4992012;28;20094;-63
2023/03/27 03:47:20;;;;;;;4.93;1.00;;;5.30;76.90;;;;;;4994430;28;20061;-61
2023/03/27 03:49:55;;;;;;;6.43;1.08;;;5.30;76.80;;;;;;5013921;28;20431;-62
2023/03/27 03:52:31;;;;;;;4.53;1.50;;;5.20;77.00;;;;;;4995826;28;20143;-62
2023/03/27 03:55:06;;;;;;;6.15;1.17;;;5.20;76.50;;;;;;5011847;28;20100;-62
2023/03/27 03:57:40;;;;;;;5.30;0.90;;;5.20;76.70;;;;;;5012289;28;20068;-61
2023/03/27 04:00:19;;;;;;;7.10;1.15;;;5.20;76.30;;;;;;4995713;28;20049;-61
2023/03/27 04:02:55;;;;;;;7.70;1.60;;;5.20;76.30;;;;;;4997082;28;20056;-62
2023/03/27 04:05:31;;;;;;;5.88;1.13;;;5.20;76.50;;;;;;5011911;28;20056;-62
2023/03/27 04:08:06;;;;;;;5.93;1.15;;;5.10;76.30;;;;;;4996945;28;20050;-62
2023/03/27 04:10:53;;;;;;;4.05;1.13;;;5.00;76.50;;;;;;4998866;28;20103;-61
2023/03/27 04:13:46;;;;;;;6.40;1.17;;;5.00;76.30;;;;;;4998832;28;20057;-61
2023/03/27 04:16:27;;;;;;;7.68;0.98;;;5.10;75.80;;;;;;5010308;28;20133;-61
2023/03/27 04:19:08;;;;;;;5.75;1.08;;;4.90;75.60;;;;;;5010314;28;20050;-61
2023/03/27 04:21:46;;;;;;;8.27;1.02;;;5.00;75.10;;;;;;4993889;28;20045;-62
2023/03/27 04:24:19;;;;;;;5.72;0.90;;;5.00;74.50;;;;;;4995728;28;20099;-62
2023/03/27 04:26:53;;;;;;;6.88;0.90;;;5.00;73.20;;;;;;4996977;28;20053;-63
2023/03/27 04:29:29;;;;;;;6.20;0.80;;;4.80;73.10;;;;;;5018038;28;20137;-63
2023/03/27 04:32:04;;;;;;;5.53;1.05;;;4.80;72.70;;;;;;5009305;28;20057;-63
2023/03/27 04:34:40;;;;;;;6.55;1.00;;;4.70;72.60;;;;;;5012625;28;20048;-62
2023/03/27 04:37:26;;;;;;;4.40;0.77;;;4.70;72.00;;;;;;4998086;28;20920;-63
2023/03/27 04:40:13;;;;;;;6.97;0.95;;;4.70;72.20;;;;;;4994441;28;20138;-63
2023/03/27 04:42:48;;;;;;;6.18;1.48;;;4.70;72.10;;;;;;4993925;28;20103;-63
2023/03/27 04:45:28;;;;;;;3.55;0.82;;;4.70;72.30;;;;;;4992016;28;20097;-61
2023/03/27 04:48:02;;;;;;;3.25;0.93;;;4.70;72.50;;;;;;5011775;28;20592;-62
2023/03/27 04:50:36;;;;;;;5.38;0.88;;;4.70;72.40;;;;;;4996552;28;20053;-62
2023/03/27 04:53:12;;;;;;;3.88;0.90;;;4.70;72.40;;;;;;5008864;28;20571;-62
2023/03/27 04:55:49;;;;;;;6.28;1.17;;;4.60;72.50;;;;;;4993235;28;20051;-62
2023/03/27 04:58:25;;;;;;;6.15;0.77;;;4.60;72.20;;;;;;4996070;28;20128;-62
2023/03/27 05:01:01;;;;;;;7.53;0.98;;;4.50;71.20;;;;;;4976556;28;20045;-62
2023/03/27 05:04:01;;;;;;;3.78;0.70;;;4.50;71.80;;;;;;5004778;28;20060;-63
2023/03/27 05:06:45;;;;;;;5.50;1.00;;;4.60;71.50;;;;;;4998605;28;20057;-60
2023/03/27 05:09:20;;;;;;;5.22;0.75;;;4.60;71.50;;;;;;4995486;28;20046;-62
2023/03/27 05:11:53;;;;;;;2.83;0.50;;;4.40;71.30;;;;;;5014359;28;20049;-62
2023/03/27 05:14:26;;;;;;;5.63;1.08;;;4.40;71.90;;;;;;4997047;28;20125;-62
2023/03/27 05:16:59;;;;;;;5.20;0.88;;;4.40;72.00;;;;;;4995052;28;20111;-62
2023/03/27 05:19:33;;;;;;;4.30;1.00;;;4.40;72.20;;;;;;4997373;28;20100;-62
2023/03/27 05:22:07;;;;;;;2.25;0.90;;;4.30;72.90;;;;;;5009416;28;20484;-62
2023/03/27 05:24:51;;;;;;;4.07;0.73;;;4.40;72.50;;;;;;4981519;28;20049;-66
2023/03/27 05:27:27;;;;;;;5.93;1.00;;;4.30;72.70;;;;;;5011417;28;20209;-62
2023/03/27 05:30:00;;;;;;;5.78;1.00;;;4.30;72.30;;;;;;4991346;28;20049;-62
2023/03/27 05:32:34;;;;;;;5.28;0.98;;;4.30;72.40;;;;;;4997416;28;20124;-64
2023/03/27 05:35:16;;;;;;;5.00;0.68;;;4.30;72.30;;;;;;4993786;28;20504;-62
2023/03/27 05:37:52;;;;;;;4.47;0.75;;;4.30;71.80;;;;;;5009868;28;20617;-61
2023/03/27 05:40:36;;;;;;;3.55;0.77;;;4.30;71.80;;;;;;4997207;28;20052;-60
2023/03/27 05:43:13;;;;;;;6.07;0.75;;;4.30;71.80;;;;;;4994450;28;20068;-63
2023/03/27 05:45:53;;;;;;;3.35;0.77;;;4.30;71.70;;;;;;5009563;28;20053;-63
2023/03/27 05:48:26;;;;;;;4.80;0.95;;;4.30;72.20;;;;;;4982042;28;20381;-63
2023/03/27 05:51:02;;;;;;;5.47;0.85;;;4.30;71.80;;;;;;4995292;28;20046;-62
2023/03/27 05:53:38;;;;;;;3.38;0.90;;;4.30;71.60;;;;;;5008796;28;20065;-62
2023/03/27 05:56:21;;;;;;;4.40;1.17;;;4.30;72.10;;;;;;5010778;28;20504;-62
2023/03/27 05:58:59;;;;;;;4.78;1.10;;;4.30;71.90;;;;;;4995060;28;20064;-60
2023/03/27 06:01:35;;;;;;;8.00;1.77;;;4.30;71.80;;;;;;5011472;28;20484;-61
2023/03/27 06:04:09;;;;;;;5.80;1.02;;;4.30;71.80;;;;;;4989367;28;20060;-61
2023/03/27 06:07:01;;;;;;;3.53;0.90;;;4.30;71.70;;;;;;4997427;28;20316;-61
2023/03/27 06:09:35;;;;;;;5.18;1.00;;;4.20;71.80;;;;;;4996091;28;20099;-62
2023/03/27 06:12:30;;;;;;;5.28;0.95;;;4.30;71.90;;;;;;5009577;28;20109;-61
2023/03/27 06:15:20;;;;;;;3.85;0.63;;;4.30;72.00;;;;;;4994555;28;20151;-61
2023/03/27 06:18:08;;;;;;;6.55;1.10;;;4.40;72.10;;;;;;5011368;28;20057;-61
2023/03/27 06:20:42;;;;;;;5.65;1.17;;;4.40;72.60;;;;;;5012258;28;20507;-63
2023/03/27 06:23:15;;;;;;;5.93;0.80;;;4.40;72.90;;;;;;4997323;28;20054;-62
2023/03/27 06:25:50;;;;;;;5.85;1.30;;;4.40;73.50;;;;;;4994079;28;20053;-63
2023/03/27 06:28:26;;;;;;;5.45;1.05;;;4.50;73.50;;;;;;5013137;28;20053;-63
2023/03/27 06:31:00;;;;;;;5.65;0.90;;;4.50;73.20;;;;;;5011004;28;20069;-63
2023/03/27 06:33:49;;;;;;;4.45;0.60;;;4.50;72.70;;;;;;4993234;28;20037;-61
2023/03/27 06:36:41;;;;;;;4.40;0.93;;;4.60;72.60;;;;;;4990278;28;20041;-60
2023/03/27 06:39:15;;;;;;;3.45;0.93;;;4.70;72.70;;;;;;5010735;28;20042;-62
2023/03/27 06:41:51;;;;;;;5.45;1.08;;;4.70;72.60;;;;;;4993103;28;20696;-61
2023/03/27 06:44:33;;;;;;;5.20;1.23;;;4.70;72.70;;;;;;5010891;28;20046;-62
2023/03/27 06:47:50;;;;;;;4.75;0.80;;;4.90;72.60;;;;;;5011198;28;20052;-62
2023/03/27 06:50:34;;;;;;;4.13;1.08;;;4.90;72.60;;;;;;4998066;28;20099;-62
2023/03/27 06:53:07;;;;;;;4.95;0.95;;;4.90;72.10;;;;;;5014439;28;20069;-61
2023/03/27 06:55:44;;;;;;;3.58;0.75;;;4.90;72.20;;;;;;5013162;28;20608;-62
2023/03/27 06:58:18;;;;;;;3.95;1.20;;;4.90;72.30;;;;;;5018562;28;20045;-63
2023/03/27 07:00:54;;;;;;;7.50;1.42;;;4.90;72.30;;;;;;5015688;28;20107;-60
2023/03/27 07:03:38;;;;;;;4.68;0.93;;;4.90;72.40;;;;;;4993420;28;20053;-63
2023/03/27 07:06:30;;;;;;;4.15;0.98;;;4.90;72.20;;;;;;5019261;28;20553;-62
2023/03/27 07:09:10;;;;;;;4.63;0.98;;;4.90;72.30;;;;;;4998526;28;20132;-63
2023/03/27 07:11:50;;;;;;;5.65;1.45;;;4.90;72.50;;;;;;4999548;28;20840;-61
2023/03/27 07:14:24;;;;;;;5.53;1.00;;;4.90;72.50;;;;;;4997563;28;20069;-62
2023/03/27 07:16:59;;;;;;;3.15;1.00;;;5.00;72.50;;;;;;4997267;28;20046;-61
2023/03/27 07:19:46;;;;;;;8.43;1.40;;;4.90;72.30;;;;;;4995414;28;20057;-61
2023/03/27 07:22:24;;;;;;;5.28;1.00;;;5.00;72.60;;;;;;5015091;28;20045;-62
2023/03/27 07:25:04;;;;;;;6.88;2.03;;;5.00;72.80;;;;;;5008465;28;20049;-62
2023/03/27 07:27:41;;;;;;;6.43;1.20;;;4.90;72.80;;;;;;5000482;28;20046;-63
2023/03/27 07:30:15;;;;;;;5.97;1.10;;;4.90;72.80;;;;;;5013555;28;20558;-63
2023/03/27 07:32:50;;;;;;;5.55;1.15;;;4.90;72.70;;;;;;5012100;28;20046;-69
2023/03/27 07:35:24;;;;;;;5.68;1.33;;;5.00;72.80;;;;;;4996711;28;20455;-65
2023/03/27 07:38:21;;;;;;;8.52;1.35;;;5.00;72.70;;;;;;5013611;28;20064;-62
2023/03/27 07:41:17;;;;;;;6.53;1.27;;;5.10;72.90;;;;;;4996361;28;20046;-60
2023/03/27 07:44:13;;;;;;;6.38;1.25;;;5.20;72.80;;;;;;5008733;28;20087;-63
2023/03/27 07:47:03;;;;;;;7.57;1.20;;;5.30;72.60;;;;;;5019526;28;20037;-62
2023/03/27 07:49:38;;;;;;;5.20;1.13;;;5.30;72.50;;;;;;5034867;28;20041;-62
2023/03/27 07:52:14;;;;;;;8.90;1.55;;;5.50;72.40;;;;;;5016593;28;20042;-62
2023/03/27 07:54:56;;;;;;;3.80;1.27;;;5.50;72.70;;;;;;5034495;28;20106;-63
2023/03/27 07:57:39;;;;;;;4.60;1.20;;;5.60;72.30;;;;;;5019859;28;20083;-62
2023/03/27 08:00:21;;;;;;;4.97;1.23;;;5.60;72.50;;;;;;5023426;28;20052;-61
2023/03/27 08:03:06;;;;;;;7.10;1.30;;;5.70;72.30;;;;;;5035547;28;20124;-62
2023/03/27 08:05:51;;;;;;;6.22;1.48;;;5.70;72.10;;;;;;5024535;28;20041;-62
2023/03/27 08:08:27;;;;;;;8.15;1.40;;;5.80;72.10;;;;;;5033907;28;20057;-64
2023/03/27 08:11:02;;;;;;;6.78;1.63;;;5.80;72.00;;;;;;5051924;28;20436;-61
2023/03/27 08:13:38;;;;;;;4.10;1.13;;;6.00;72.00;;;;;;5034625;28;20049;-61
2023/03/27 08:16:13;;;;;;;7.22;1.30;;;6.20;71.00;;;;;;5032928;28;20109;-62
2023/03/27 08:18:48;;;;;;;8.70;1.98;;;6.30;71.00;;;;;;5027048;28;20037;-62
2023/03/27 08:21:25;;;;;;;9.82;1.70;;;6.50;70.50;;;;;;5029862;28;20142;-61
2023/03/27 08:24:00;;;;;;;7.75;1.25;;;6.60;69.40;;;;;;5044584;28;20049;-62
2023/03/27 08:26:35;;;;;;;4.70;1.50;;;6.80;68.70;;;;;;5043486;28;20045;-57
2023/03/27 08:29:12;;;;;;;5.70;1.50;;;6.90;68.50;;;;;;5031789;28;20042;-61
2023/03/27 08:31:47;;;;;;;6.15;1.10;;;6.90;68.80;;;;;;5031819;28;20102;-59
2023/03/27 08:34:21;;;;;;;4.65;1.23;;;7.20;67.80;;;;;;5030107;28;20068;-62
2023/03/27 08:36:56;;;;;;;6.90;1.20;;;7.10;67.40;;;;;;5032556;28;20409;-62
2023/03/27 08:39:41;;;;;;;6.13;1.25;;;7.10;67.20;;;;;;5015868;28;20052;-60
2023/03/27 08:42:18;;;;;;;7.35;1.50;;;7.10;66.70;;;;;;5001981;28;20055;-61
2023/03/27 08:44:55;;;;;;;4.53;1.08;;;7.40;65.70;;;;;;5015239;28;20045;-61
2023/03/27 08:47:52;;;;;;;5.13;1.35;;;7.60;65.40;;;;;;5018075;28;20041;-63
2023/03/27 08:50:33;;;;;;;5.95;1.00;;;7.70;65.30;;;;;;5015947;28;20111;-62
2023/03/27 08:53:20;;;;;;;5.18;1.08;;;7.60;65.10;;;;;;5032187;28;20045;-62
2023/03/27 08:55:54;;;;;;;7.57;0.90;;;7.50;65.40;;;;;;5029721;28;20061;-60
2023/03/27 08:58:36;;;;;;;7.50;1.17;;;7.40;63.40;;;;;;5029201;28;20140;-62
2023/03/27 09:01:28;;;;;;;5.85;0.90;;;7.60;64.10;;;;;;5016992;28;20060;-63
2023/03/27 09:04:18;;;;;;;5.15;1.33;;;7.90;63.50;;;;;;5019331;28;20049;-61
2023/03/27 09:07:01;;;;;;;4.32;1.10;;;8.10;63.20;;;;;;5015298;28;20040;-62
2023/03/27 09:09:54;;;;;;;4.35;1.15;;;8.10;62.90;;;;;;5013475;28;20053;-61
2023/03/27 09:12:47;;;;;;;6.38;1.15;;;7.90;62.20;;;;;;5015422;28;20098;-61
2023/03/27 09:15:25;;;;;;;3.80;0.77;;;7.90;60.60;;;;;;5033559;28;20057;-62
2023/03/27 09:18:04;;;;;;;3.10;0.90;;;8.00;62.20;;;;;;5004245;28;20104;-63
2023/03/27 09:21:08;;;;;;;6.85;0.90;;;8.00;62.10;;;;;;5033365;28;20677;-63
2023/03/27 09:24:23;;;;;;;2.55;0.70;;;7.90;61.20;;;;;;4997706;28;20072;-63
2023/03/27 09:27:21;;;;;;;5.43;1.38;;;8.00;61.40;;;;;;5027682;28;20044;-61
2023/03/27 09:30:19;;;;;;;4.35;1.00;;;8.20;61.30;;;;;;5011729;28;20130;-61
2023/03/27 09:33:03;;;;;;;7.00;1.00;;;8.30;60.70;;;;;;5014787;28;20123;-61
2023/03/27 09:35:37;;;;;;;4.10;0.95;;;8.30;60.40;;;;;;5012664;28;20057;-61
2023/03/27 09:38:24;;;;;;;5.82;0.98;;;8.20;60.60;;;;;;5014666;28;20072;-62
2023/03/27 09:41:03;;;;;;;4.75;0.82;;;8.10;61.20;;;;;;5003244;28;20447;-61
2023/03/27 09:43:55;;;;;;;3.70;0.80;;;7.90;61.90;;;;;;5025720;28;20144;-62
2023/03/27 09:46:39;;;;;;;6.20;1.27;;;7.90;63.30;;;;;;5009130;28;20548;-62
2023/03/27 09:49:14;;;;;;;5.43;1.15;;;8.10;62.90;;;;;;4998368;28;20072;-62
2023/03/27 09:51:55;;;;;;;4.97;1.23;;;8.40;62.10;;;;;;4994573;28;20041;-61
2023/03/27 09:54:55;;;;;;;4.78;1.13;;;8.50;61.10;;;;;;4993626;28;20053;-61
2023/03/27 09:57:37;;;;;;;3.75;1.05;;;8.40;61.40;;;;;;5006837;28;20050;-62
2023/03/27 10:00:27;;;;;;;5.35;1.02;;;8.60;62.30;;;;;;5011855;28;20765;-62
2023/03/27 10:03:04;;;;;;;4.40;1.23;;;8.80;62.40;;;;;;4992457;28;20176;-62
2023/03/27 10:05:40;;;;;;;4.97;1.15;;;9.00;61.80;;;;;;4999234;28;20038;-62
2023/03/27 10:08:32;;;;;;;4.38;1.40;;;9.00;61.90;;;;;;4996797;28;20045;-61
2023/03/27 10:11:16;;;;;;;4.75;1.15;;;8.90;61.40;;;;;;5011882;28;20041;-61
2023/03/27 10:13:54;;;;;;;6.40;1.02;;;9.10;60.90;;;;;;4997128;28;20164;-63
2023/03/27 10:16:37;;;;;;;5.22;0.90;;;9.20;59.00;;;;;;4996566;28;20050;-62
2023/03/27 10:19:22;;;;;;;5.03;1.05;;;9.10;59.10;;;;;;5006741;28;20069;-60
2023/03/27 10:22:01;;;;;;;7.95;1.60;;;9.00;59.10;;;;;;4998175;28;20042;-61
2023/03/27 10:24:38;;;;;;;5.55;1.20;;;8.80;59.00;;;;;;5009280;28;20042;-60
2023/03/27 10:27:45;;;;;;;3.92;0.98;;;8.60;59.80;;;;;;4995444;28;20301;-62
2023/03/27 10:30:34;;;;;;;5.18;1.00;;;8.00;64.90;;;;;;5011397;28;20053;-63
2023/03/27 10:33:35;;;;;;;2.80;0.77;;;7.50;67.60;;;;;;5011973;28;20050;-61
2023/03/27 10:36:20;;;;;;;1.70;0.50;;;7.40;68.30;;;;;;5009927;28;20041;-63
2023/03/27 10:38:57;;;;;;;3.00;0.98;;;7.00;68.70;;;;;;4996160;28;20051;-61
2023/03/27 10:41:51;;;;;;;2.50;0.85;;;7.00;69.30;;;;;;5014842;28;20046;-64
2023/03/27 10:44:31;;;;;;;4.38;0.90;;;7.10;69.50;;;;;;5007881;28;20457;-61
2023/03/27 10:47:14;;;;;;;3.30;0.98;;;7.10;69.50;;;;;;5017237;28;20606;-62
2023/03/27 10:50:01;;;;;;;4.28;0.52;;;7.20;69.50;;;;;;5034366;28;20042;-63
2023/03/27 10:52:54;;;;;;;2.72;0.47;;;7.20;69.40;;;;;;5017077;28;20056;-60
2023/03/27 10:55:47;;;;;;;2.00;0.55;;;7.50;69.70;;;;;;5008629;28;20483;-62
2023/03/27 10:58:27;;;;;;;2.75;0.63;;;7.70;69.60;;;;;;5016319;28;20050;-62
2023/03/27 11:01:09;;;;;;;1.27;0.50;;;7.70;69.40;;;;;;5019227;28;20100;-62
2023/03/27 11:03:53;;;;;;;2.95;0.50;;;7.70;68.90;;;;;;5018506;28;20054;-62
2023/03/27 11:06:33;;;;;;;3.20;0.82;;;7.70;68.20;;;;;;5015896;28;20051;-62
2023/03/27 11:09:14;;;;;;;3.03;0.70;;;7.90;68.00;;;;;;5031958;28;20053;-60
2023/03/27 11:11:59;;;;;;;;;;;8.20;67.60;;;;;;5006785;28;20049;-62
2023/03/27 11:14:45;;;;;;;4.07;0.63;;;8.50;67.20;;;;;;5032713;28;19931;-61
2023/03/27 11:17:29;;;;;;;2.55;0.57;;;8.70;66.40;;;;;;5014703;28;20064;-60
2023/03/27 11:20:28;;;;;;;5.50;0.80;;;8.90;65.70;;;;;;5013879;28;20049;-60
2023/03/27 11:23:30;;;;;;;4.38;0.88;;;9.10;64.10;;;;;;5015532;28;20048;-60
2023/03/27 11:26:25;;;;;;;2.58;0.70;;;9.20;64.20;;;;;;5017930;28;20388;-60
2023/03/27 11:29:04;;;;;;;1.92;0.40;;;9.30;62.70;;;;;;5002417;28;20079;-62
2023/03/27 11:31:48;;;;;;;3.42;0.75;;;9.40;61.10;;;;;;5016740;28;20107;-62
2023/03/27 11:34:56;;;;;;;2.75;0.60;;;9.50;60.70;;;;;;5019209;28;20146;-65
2023/03/27 11:37:45;;;;;;;2.22;0.45;;;9.50;59.80;;;;;;5002563;28;20051;-63
2023/03/27 11:40:25;;;;;;;3.45;0.60;;;9.60;59.20;;;;;;5015190;28;20083;-62
2023/03/27 11:43:01;;;;;;;3.95;0.60;;;9.60;59.50;;;;;;5032446;28;20056;-60
2023/03/27 11:45:48;;;;;;;1.88;0.68;;;9.60;59.10;;;;;;5011696;28;20084;-63
2023/03/27 11:48:47;;;;;;;2.28;0.60;;;9.60;59.00;;;;;;4994930;28;20133;-61
2023/03/27 11:51:33;;;;;;;2.50;0.60;;;9.70;58.70;;;;;;5016028;28;20057;-61
2023/03/27 11:54:27;;;;;;;1.98;0.85;;;9.70;58.00;;;;;;4993251;28;20092;-61
2023/03/27 11:57:13;;;;;;;4.53;0.95;;;9.80;57.80;;;;;;4980632;28;20124;-62
2023/03/27 12:00:13;;;;;;;3.13;0.95;;;9.80;57.50;;;;;;4992744;28;20492;-63
2023/03/27 12:03:12;;;;;;;4.50;0.98;;;9.80;56.30;;;;;;5011710;28;20049;-63
2023/03/27 12:06:01;;;;;;;5.28;0.80;;;9.90;57.00;;;;;;4991983;28;20096;-61
2023/03/27 12:08:59;;;;;;;2.90;0.88;;;9.90;55.10;;;;;;4995841;28;20085;-63
2023/03/27 12:11:47;;;;;;;4.45;1.00;;;9.90;56.10;;;;;;4992155;28;20576;-62
2023/03/27 12:14:42;;;;;;;4.60;0.90;;;9.90;55.30;;;;;;4996881;28;20566;-62
2023/03/27 12:17:42;;;;;;;4.18;0.90;;;10.00;54.40;;;;;;4998504;28;20045;-61
2023/03/27 12:20:55;;;;;;;3.83;0.77;;;10.10;54.50;;;;;;4996624;28;20053;-61
2023/03/27 12:23:47;;;;;;;4.10;0.77;;;10.10;53.50;;;;;;4999064;28;20049;-61
2023/03/27 12:26:58;;;;;;;3.45;0.80;;;10.10;53.30;;;;;;5005409;28;20034;-61
2023/03/27 12:30:03;;;;;;;1.88;0.70;;;10.20;53.70;;;;;;5012573;28;20524;-62
2023/03/27 12:32:58;;;;;;;4.40;1.10;;;10.10;53.10;;;;;;5010549;28;20045;-62
2023/03/27 12:35:36;;;;;;;3.60;0.75;;;10.10;53.20;;;;;;5001321;28;20038;-62
2023/03/27 12:38:19;;;;;;;2.78;0.70;;;10.10;51.30;;;;;;5016004;28;20046;-63
2023/03/27 12:41:04;;;;;;;3.65;0.77;;;10.10;51.30;;;;;;5016645;28;20050;-60
2023/03/27 12:43:58;;;;;;;3.45;1.00;;;9.90;49.30;;;;;;4999228;28;20052;-63
2023/03/27 12:46:43;;;;;;;2.43;0.60;;;9.80;49.90;;;;;;5016594;28;20041;-63
2023/03/27 12:49:41;;;;;;;2.97;0.68;;;9.80;50.60;;;;;;4997732;28;20464;-62
2023/03/27 12:52:20;;;;;;;3.78;0.85;;;9.70;52.00;;;;;;4984899;28;20056;-59
2023/03/27 12:55:31;;;;;;;3.72;0.90;;;9.50;52.30;;;;;;5013665;28;20049;-62
2023/03/27 12:58:33;;;;;;;2.50;0.68;;;9.40;50.30;;;;;;5012898;28;20050;-61
2023/03/27 13:02:15;;;;;;;4.40;0.60;;;9.50;49.10;;;;;;5008300;28;20543;-62
2023/03/27 13:05:41;;;;;;;1.27;0.60;;;9.60;48.80;;;;;;4976084;28;20045;-63
2023/03/27 13:08:55;;;;;;;2.22;0.65;;;9.60;49.40;;;;;;4973265;28;20052;-63
2023/03/27 13:11:43;;;;;;;3.40;0.85;;;9.60;48.50;;;;;;4996933;28;20447;-64
2023/03/27 13:14:53;;;;;;;2.20;0.47;;;9.50;49.00;;;;;;5013569;28;20053;-63
2023/03/27 13:18:03;;;;;;;2.65;0.60;;;9.40;49.40;;;;;;4996708;28;20065;-63
2023/03/27 13:20:47;;;;;;;5.88;1.10;;;9.50;50.60;;;;;;4997153;28;20080;-62
2023/03/27 13:23:35;;;;;;;5.32;0.90;;;9.60;51.20;;;;;;5007558;28;20061;-62
2023/03/27 13:26:40;;;;;;;3.67;0.60;;;9.70;52.20;;;;;;4997066;28;20045;-61
2023/03/27 13:29:16;;;;;;;2.35;1.02;;;9.70;52.20;;;;;;5013970;28;20046;-62
2023/03/27 13:32:03;;;;;;;3.00;0.73;;;9.70;53.40;;;;;;4992435;28;20049;-61
2023/03/27 13:35:03;;;;;;;4.00;0.68;;;9.60;52.90;;;;;;4989372;28;20092;-62
2023/03/27 13:37:56;;;;;;;3.60;0.80;;;9.50;54.60;;;;;;5009026;28;20049;-61
2023/03/27 13:41:40;;;;;;;3.65;1.08;;;9.50;53.30;;;;;;4997747;28;20056;-61
2023/03/27 13:44:24;;;;;;;3.50;0.95;;;9.50;53.50;;;;;;4999315;28;20032;-62
2023/03/27 13:47:11;;;;;;;3.78;1.00;;;9.50;51.60;;;;;;4997891;28;20115;-62
2023/03/27 13:50:10;;;;;;;3.30;0.68;;;9.40;52.50;;;;;;5029352;28;20236;-62
2023/03/27 13:53:22;;;;;;;2.20;0.80;;;9.40;51.60;;;;;;5015333;28;20121;-63
2023/03/27 13:56:21;;;;;;;2.60;0.95;;;9.30;51.90;;;;;;5013105;28;20049;-62
2023/03/27 13:59:46;;;;;;;3.95;0.90;;;9.30;53.60;;;;;;5029667;28;20044;-62
2023/03/27 14:02:53;;;;;;;2.38;0.70;;;9.10;55.30;;;;;;5017624;28;20053;-62
2023/03/27 14:06:03;;;;;;;3.45;0.88;;;8.90;57.80;;;;;;5016596;28;20127;-63
2023/03/27 14:08:51;;;;;;;4.40;0.88;;;8.70;58.90;;;;;;5017772;28;20466;-63
2023/03/27 14:12:06;;;;;;;3.20;1.17;;;8.60;60.90;;;;;;5006465;28;20407;-63
2023/03/27 14:15:26;;;;;;;3.40;0.95;;;8.50;62.20;;;;;;5015742;28;20056;-62
2023/03/27 14:18:50;;;;;;;3.83;1.10;;;8.40;62.40;;;;;;5032865;28;20053;-62
2023/03/27 14:21:29;;;;;;;2.22;0.70;;;8.40;61.90;;;;;;5015038;28;20069;-63
2023/03/27 14:24:17;;;;;;;3.92;0.93;;;8.40;61.80;;;;;;5012258;28;20310;-63
2023/03/27 14:26:54;;;;;;;2.35;0.70;;;8.40;62.50;;;;;;5029662;28;20076;-63
2023/03/27 14:29:28;;;;;;;2.80;0.80;;;8.40;62.60;;;;;;5033771;28;20047;-62
2023/03/27 14:32:03;;;;;;;2.13;0.50;;;8.30;62.60;;;;;;5035610;28;20122;-62